Time,TemperatureF,DewpointF,PressureIn,WindDirection,WindDirectionDegrees,WindSpeedMPH,WindSpeedGustMPH,Humidity,HourlyPrecipIn,Conditions,Clouds,dailyrainin,SoftwareType,DateUTC
2013-01-15 00:00:00,11.6,9.7,30.47,WSW,255,0.0,0.0,92,0.00,,,0.00,Wunderground v.1.15,2013-01-15 06:00:00,
2013-01-15 00:05:00,11.4,9.5,30.47,WSW,255,0.0,0.0,92,0.00,,,0.00,Wunderground v.1.15,2013-01-15 06:05:00,
2013-01-15 00:15:00,11.1,9.2,30.47,WSW,255,0.0,0.0,92,0.00,,,0.00,Wunderground v.1.15,2013-01-15 06:15:00,
2013-01-15 00:20:00,11.0,9.1,30.47,WSW,254,0.0,0.0,92,0.00,,,0.00,Wunderground v.1.15,2013-01-15 06:20:00,
2013-01-15 00:30:00,11.0,9.1,30.47,WSW,255,0.0,0.0,92,0.00,,,0.00,Wunderground v.1.15,2013-01-15 06:30:00,
2013-01-15 00:35:00,10.7,8.6,30.47,WSW,255,0.0,0.0,91,0.00,,,0.00,Wunderground v.1.15,2013-01-15 06:35:00,
2013-01-15 00:45:00,9.9,7.8,30.46,WSW,255,0.0,0.0,91,0.00,,,0.00,Wunderground v.1.15,2013-01-15 06:45:00,
2013-01-15 00:55:00,9.4,7.3,30.46,WSW,255,0.0,0.0,91,0.00,,,0.00,Wunderground v.1.15,2013-01-15 06:55:00,
2013-01-15 01:00:00,9.3,7.2,30.46,WSW,255,0.0,0.0,91,0.00,,,0.00,Wunderground v.1.15,2013-01-15 07:00:00,
2013-01-15 01:10:00,9.8,7.9,30.46,WSW,255,0.0,0.0,92,0.00,,,0.00,Wunderground v.1.15,2013-01-15 07:10:00,
2013-01-15 01:15:00,10.3,8.7,30.46,WSW,255,0.0,0.0,93,0.00,,,0.00,Wunderground v.1.15,2013-01-15 07:15:00,
2013-01-15 01:25:00,10.5,8.6,30.46,WSW,255,0.0,0.0,92,0.00,,,0.00,Wunderground v.1.15,2013-01-15 07:25:00,
2013-01-15 01:30:00,10.4,8.5,30.46,WSW,255,0.0,0.0,92,0.00,,,0.00,Wunderground v.1.15,2013-01-15 07:30:00,
2013-01-15 01:40:00,10.6,8.7,30.46,WSW,255,0.0,0.0,92,0.00,,,0.00,Wunderground v.1.15,2013-01-15 07:40:00,
2013-01-15 01:45:00,10.7,8.8,30.46,WSW,255,0.0,0.0,92,0.00,,,0.00,Wunderground v.1.15,2013-01-15 07:45:00,
2013-01-15 01:55:00,10.2,8.1,30.46,WSW,255,0.0,0.0,91,0.00,,,0.00,Wunderground v.1.15,2013-01-15 07:55:00,
2013-01-15 02:00:00,10.0,7.9,30.46,WSW,255,0.0,0.0,91,0.00,,,0.00,Wunderground v.1.15,2013-01-15 08:00:00,
2013-01-15 02:10:00,9.7,7.6,30.46,WSW,255,0.0,0.0,91,0.00,,,0.00,Wunderground v.1.15,2013-01-15 08:10:00,
2013-01-15 02:20:00,9.7,7.6,30.46,WSW,255,0.0,0.0,91,0.00,,,0.00,Wunderground v.1.15,2013-01-15 08:20:00,
2013-01-15 02:30:00,10.3,8.4,30.46,WSW,255,0.0,0.0,92,0.00,,,0.00,Wunderground v.1.15,2013-01-15 08:30:00,
2013-01-15 02:35:00,10.2,8.3,30.46,WSW,255,0.0,0.0,92,0.00,,,0.00,Wunderground v.1.15,2013-01-15 08:35:00,
2013-01-15 02:45:00,9.9,7.8,30.46,WSW,255,0.0,0.0,91,0.00,,,0.00,Wunderground v.1.15,2013-01-15 08:45:00,
2013-01-15 02:55:00,9.5,7.4,30.46,WSW,255,0.0,0.0,91,0.00,,,0.00,Wunderground v.1.15,2013-01-15 08:55:00,
2013-01-15 03:00:00,9.2,7.1,30.45,WSW,255,0.0,0.0,91,0.00,,,0.00,Wunderground v.1.15,2013-01-15 09:00:00,
2013-01-15 03:10:00,9.8,7.9,30.46,WSW,255,0.0,0.0,92,0.00,,,0.00,Wunderground v.1.15,2013-01-15 09:10:00,
2013-01-15 03:20:00,10.1,8.2,30.46,WSW,255,0.0,0.0,92,0.00,,,0.00,Wunderground v.1.15,2013-01-15 09:20:00,
2013-01-15 03:25:00,10.3,8.4,30.46,WSW,255,0.0,0.0,92,0.00,,,0.00,Wunderground v.1.15,2013-01-15 09:25:00,
2013-01-15 03:35:00,9.8,7.7,30.46,WSW,254,0.0,0.0,91,0.00,,,0.00,Wunderground v.1.15,2013-01-15 09:35:00,
2013-01-15 03:45:00,9.0,6.9,30.45,WSW,255,0.0,0.0,91,0.00,,,0.00,Wunderground v.1.15,2013-01-15 09:45:00,
2013-01-15 03:55:00,9.1,7.0,30.45,WSW,255,0.0,0.0,91,0.00,,,0.00,Wunderground v.1.15,2013-01-15 09:55:00,
2013-01-15 04:00:00,8.7,6.6,30.45,WSW,255,0.0,0.0,91,0.00,,,0.00,Wunderground v.1.15,2013-01-15 10:00:00,
2013-01-15 04:10:00,9.3,7.4,30.45,WNW,293,0.0,0.0,92,0.00,,,0.00,Wunderground v.1.15,2013-01-15 10:10:00,
2013-01-15 04:15:00,9.5,7.6,30.44,WNW,293,0.0,0.0,92,0.00,,,0.00,Wunderground v.1.15,2013-01-15 10:15:00,
2013-01-15 04:25:00,9.3,7.2,30.44,WNW,293,0.0,0.0,91,0.00,,,0.00,Wunderground v.1.15,2013-01-15 10:25:00,
2013-01-15 04:35:00,9.4,7.3,30.43,WNW,292,0.0,0.0,91,0.00,,,0.00,Wunderground v.1.15,2013-01-15 10:35:00,
2013-01-15 04:45:00,9.1,7.0,30.43,WNW,293,0.0,0.0,91,0.00,,,0.00,Wunderground v.1.15,2013-01-15 10:45:00,
2013-01-15 04:50:00,8.9,6.6,30.43,WNW,293,0.0,0.0,90,0.00,,,0.00,Wunderground v.1.15,2013-01-15 10:50:00,
2013-01-15 05:00:00,8.8,6.7,30.43,WNW,292,0.0,0.0,91,0.00,,,0.00,Wunderground v.1.15,2013-01-15 11:00:00,
2013-01-15 05:10:00,9.2,7.3,30.42,North,5,0.0,0.0,92,0.00,,,0.00,Wunderground v.1.15,2013-01-15 11:10:00,
2013-01-15 05:20:00,9.7,7.6,30.42,North,5,0.0,0.0,91,0.00,,,0.00,Wunderground v.1.15,2013-01-15 11:20:00,
2013-01-15 05:25:00,9.7,7.6,30.42,NNW,330,0.0,0.0,91,0.00,,,0.00,Wunderground v.1.15,2013-01-15 11:25:00,
2013-01-15 05:35:00,10.7,8.8,30.42,NNE,18,0.0,1.0,92,0.00,,,0.00,Wunderground v.1.15,2013-01-15 11:35:00,
2013-01-15 05:45:00,11.6,9.5,30.43,ENE,73,0.0,0.0,91,0.00,,,0.00,Wunderground v.1.15,2013-01-15 11:45:00,
2013-01-15 05:55:00,11.7,9.6,30.42,ENE,73,0.0,0.0,91,0.00,,,0.00,Wunderground v.1.15,2013-01-15 11:55:00,
2013-01-15 06:00:00,11.8,9.4,30.43,ENE,74,0.0,0.0,90,0.00,,,0.00,Wunderground v.1.15,2013-01-15 12:00:00,
2013-01-15 06:10:00,12.1,9.7,30.43,NE,41,0.0,0.0,90,0.00,,,0.00,Wunderground v.1.15,2013-01-15 12:10:00,
2013-01-15 06:15:00,12.1,9.7,30.43,NE,41,0.0,0.0,90,0.00,,,0.00,Wunderground v.1.15,2013-01-15 12:15:00,
2013-01-15 06:25:00,11.8,9.4,30.43,NNE,26,0.0,0.0,90,0.00,,,0.00,Wunderground v.1.15,2013-01-15 12:25:00,
2013-01-15 06:30:00,11.6,9.2,30.43,NNE,27,0.0,0.0,90,0.00,,,0.00,Wunderground v.1.15,2013-01-15 12:30:00,
2013-01-15 06:40:00,11.6,9.2,30.43,NE,39,0.0,0.0,90,0.00,,,0.00,Wunderground v.1.15,2013-01-15 12:40:00,
2013-01-15 06:45:00,11.7,9.3,30.43,NE,46,0.0,0.0,90,0.00,,,0.00,Wunderground v.1.15,2013-01-15 12:45:00,
2013-01-15 06:55:00,11.7,9.3,30.44,NE,46,0.0,0.0,90,0.00,,,0.00,Wunderground v.1.15,2013-01-15 12:55:00,
2013-01-15 07:00:00,11.1,8.5,30.44,NE,47,0.0,0.0,89,0.00,,,0.00,Wunderground v.1.15,2013-01-15 13:00:00,
2013-01-15 07:10:00,10.7,8.3,30.44,NE,46,0.0,0.0,90,0.00,,,0.00,Wunderground v.1.15,2013-01-15 13:10:00,
2013-01-15 07:20:00,10.2,7.9,30.44,NE,47,0.0,0.0,90,0.00,,,0.00,Wunderground v.1.15,2013-01-15 13:20:00,
2013-01-15 07:30:00,10.0,7.9,30.44,ENE,71,0.0,0.0,91,0.00,,,0.00,Wunderground v.1.15,2013-01-15 13:30:00,
2013-01-15 07:35:00,10.0,7.9,30.44,ENE,70,0.0,0.0,91,0.00,,,0.00,Wunderground v.1.15,2013-01-15 13:35:00,
2013-01-15 07:45:00,9.7,7.6,30.45,ENE,71,0.0,0.0,91,0.00,,,0.00,Wunderground v.1.15,2013-01-15 13:45:00,
2013-01-15 07:50:00,9.5,7.2,30.45,ENE,70,0.0,0.0,90,0.00,,,0.00,Wunderground v.1.15,2013-01-15 13:50:00,
2013-01-15 08:00:00,9.3,7.2,30.45,ENE,70,0.0,0.0,91,0.00,,,0.00,Wunderground v.1.15,2013-01-15 14:00:00,
2013-01-15 08:05:00,9.5,7.4,30.45,ENE,71,0.0,0.0,91,0.00,,,0.00,Wunderground v.1.15,2013-01-15 14:05:00,
2013-01-15 08:15:00,10.1,8.2,30.46,ENE,71,0.0,0.0,92,0.00,,,0.00,Wunderground v.1.15,2013-01-15 14:15:00,
2013-01-15 08:25:00,11.9,10.3,30.47,SE,133,0.0,0.0,93,0.00,,,0.00,Wunderground v.1.15,2013-01-15 14:25:00,
2013-01-15 08:35:00,13.0,11.4,30.47,SE,133,0.0,0.0,93,0.00,,,0.00,Wunderground v.1.15,2013-01-15 14:35:00,
2013-01-15 08:40:00,13.6,11.7,30.47,SE,133,0.0,0.0,92,0.00,,,0.00,Wunderground v.1.15,2013-01-15 14:40:00,
2013-01-15 08:50:00,15.5,13.6,30.47,SE,127,0.0,0.0,92,0.00,,,0.00,Wunderground v.1.15,2013-01-15 14:50:00,
2013-01-15 08:55:00,16.3,14.1,30.47,ESE,115,0.0,0.0,91,0.00,,,0.00,Wunderground v.1.15,2013-01-15 14:55:00,
2013-01-15 09:00:00,17.0,14.6,30.47,SSE,148,0.0,0.0,90,0.00,,,0.00,Wunderground v.1.15,2013-01-15 15:00:00,
2013-01-15 09:10:00,17.7,15.3,30.47,East,81,0.0,0.0,90,0.00,,,0.00,Wunderground v.1.15,2013-01-15 15:10:00,
2013-01-15 09:15:00,18.1,15.1,30.47,ENE,71,0.0,0.0,88,0.00,,,0.00,Wunderground v.1.15,2013-01-15 15:15:00,
2013-01-15 09:25:00,18.9,15.7,30.47,ENE,62,0.0,0.0,87,0.00,,,0.00,Wunderground v.1.15,2013-01-15 15:25:00,
2013-01-15 09:30:00,19.8,16.8,30.47,SE,146,0.0,0.0,88,0.00,,,0.00,Wunderground v.1.15,2013-01-15 15:30:00,
2013-01-15 09:40:00,20.6,17.6,30.46,ENE,57,0.0,0.0,88,0.00,,,0.00,Wunderground v.1.15,2013-01-15 15:40:00,
2013-01-15 09:45:00,21.1,17.8,30.46,ENE,67,0.0,0.0,87,0.00,,,0.00,Wunderground v.1.15,2013-01-15 15:45:00,
2013-01-15 09:55:00,21.7,17.3,30.45,NE,44,1.0,1.0,83,0.00,,,0.00,Wunderground v.1.15,2013-01-15 15:55:00,
2013-01-15 10:00:00,22.1,17.7,30.44,NE,41,1.0,4.0,83,0.00,,,0.00,Wunderground v.1.15,2013-01-15 16:00:00,
2013-01-15 10:10:00,22.6,17.9,30.43,ENE,60,3.0,3.0,82,0.00,,,0.00,Wunderground v.1.15,2013-01-15 16:10:00,
2013-01-15 10:20:00,23.0,18.3,30.42,ENE,64,3.0,3.0,82,0.00,,,0.00,Wunderground v.1.15,2013-01-15 16:20:00,
2013-01-15 10:30:00,23.5,18.2,30.42,ENE,69,2.0,3.0,80,0.00,,,0.00,Wunderground v.1.15,2013-01-15 16:30:00,
2013-01-15 10:35:00,23.8,17.9,30.42,ENE,69,3.0,3.0,78,0.00,,,0.00,Wunderground v.1.15,2013-01-15 16:35:00,
2013-01-15 10:45:00,24.6,17.8,30.42,SSW,208,1.0,3.0,75,0.00,,,0.00,Wunderground v.1.15,2013-01-15 16:45:00,
2013-01-15 10:50:00,24.7,17.9,30.43,ESE,108,1.0,1.0,75,0.00,,,0.00,Wunderground v.1.15,2013-01-15 16:50:00,
2013-01-15 11:00:00,25.5,18.4,30.42,East,98,0.0,0.0,74,0.00,,,0.00,Wunderground v.1.15,2013-01-15 17:00:00,
2013-01-15 11:10:00,25.4,18.6,30.42,SSE,149,0.0,0.0,75,0.00,,,0.00,Wunderground v.1.15,2013-01-15 17:10:00,
2013-01-15 11:15:00,25.4,18.3,30.41,ENE,65,1.0,1.0,74,0.00,,,0.00,Wunderground v.1.15,2013-01-15 17:15:00,
2013-01-15 11:25:00,25.9,18.1,30.40,ENE,62,1.0,2.0,72,0.00,,,0.00,Wunderground v.1.15,2013-01-15 17:25:00,
2013-01-15 11:35:00,26.3,18.2,30.40,ENE,68,1.0,4.0,71,0.00,,,0.00,Wunderground v.1.15,2013-01-15 17:35:00,
2013-01-15 11:45:00,25.6,18.8,30.39,ENE,66,2.0,3.0,75,0.00,,,0.00,Wunderground v.1.15,2013-01-15 17:45:00,
2013-01-15 11:55:00,25.9,19.4,30.38,ENE,60,2.0,4.0,76,0.00,,,0.00,Wunderground v.1.15,2013-01-15 17:55:00,
2013-01-15 12:00:00,26.1,19.6,30.38,ENE,60,2.0,2.0,76,0.00,,,0.00,Wunderground v.1.15,2013-01-15 18:00:00,
2013-01-15 12:10:00,25.8,18.0,30.37,ENE,65,2.0,2.0,72,0.00,,,0.00,Wunderground v.1.15,2013-01-15 18:10:00,
2013-01-15 12:15:00,25.8,18.7,30.37,NE,44,3.0,3.0,74,0.00,,,0.00,Wunderground v.1.15,2013-01-15 18:15:00,
2013-01-15 12:25:00,25.9,18.4,30.37,East,81,3.0,3.0,73,0.00,,,0.00,Wunderground v.1.15,2013-01-15 18:25:00,
2013-01-15 12:30:00,26.1,18.3,30.37,ENE,63,2.0,2.0,72,0.00,,,0.00,Wunderground v.1.15,2013-01-15 18:30:00,
2013-01-15 12:40:00,26.5,18.7,30.36,ENE,58,2.0,4.0,72,0.00,,,0.00,Wunderground v.1.15,2013-01-15 18:40:00,
2013-01-15 12:50:00,26.4,18.3,30.36,NE,50,3.0,3.0,71,0.00,,,0.00,Wunderground v.1.15,2013-01-15 18:50:00,
2013-01-15 13:00:00,26.3,17.8,30.35,ENE,70,2.0,2.0,70,0.00,,,0.00,Wunderground v.1.15,2013-01-15 19:00:00,
2013-01-15 13:05:00,26.2,17.7,30.35,East,89,2.0,2.0,70,0.00,,,0.00,Wunderground v.1.15,2013-01-15 19:05:00,
2013-01-15 13:15:00,26.6,19.4,30.34,NNE,19,1.0,2.0,74,0.00,,,0.00,Wunderground v.1.15,2013-01-15 19:15:00,
2013-01-15 13:20:00,26.9,19.1,30.34,ESE,111,1.0,1.0,72,0.00,,,0.00,Wunderground v.1.15,2013-01-15 19:20:00,
2013-01-15 13:30:00,26.7,18.9,30.34,ENE,61,1.0,1.0,72,0.00,,,0.00,Wunderground v.1.15,2013-01-15 19:30:00,
2013-01-15 13:40:00,27.0,17.5,30.34,ENE,63,1.0,1.0,67,0.00,,,0.00,Wunderground v.1.15,2013-01-15 19:40:00,
2013-01-15 13:50:00,27.2,18.4,30.34,ENE,69,0.0,1.0,69,0.00,,,0.00,Wunderground v.1.15,2013-01-15 19:50:00,
2013-01-15 13:55:00,27.1,17.6,30.34,SSE,166,0.0,1.0,67,0.00,,,0.00,Wunderground v.1.15,2013-01-15 19:55:00,
2013-01-15 14:00:00,27.0,17.8,30.34,SE,129,1.0,1.0,68,0.00,,,0.00,Wunderground v.1.15,2013-01-15 20:00:00,
2013-01-15 14:10:00,26.9,17.7,30.33,ENE,68,0.0,0.0,68,0.00,,,0.00,Wunderground v.1.15,2013-01-15 20:10:00,
2013-01-15 14:20:00,27.2,18.0,30.33,NE,54,1.0,3.0,68,0.00,,,0.00,Wunderground v.1.15,2013-01-15 20:20:00,
2013-01-15 14:30:00,27.3,18.5,30.33,SSE,156,0.0,0.0,69,0.00,,,0.00,Wunderground v.1.15,2013-01-15 20:30:00,
2013-01-15 14:40:00,27.8,18.3,30.32,ESE,113,0.0,0.0,67,0.00,,,0.00,Wunderground v.1.15,2013-01-15 20:40:00,
2013-01-15 14:45:00,27.7,18.2,30.32,ENE,74,0.0,0.0,67,0.00,,,0.00,Wunderground v.1.15,2013-01-15 20:45:00,
2013-01-15 14:55:00,27.5,18.3,30.32,ENE,72,1.0,1.0,68,0.00,,,0.00,Wunderground v.1.15,2013-01-15 20:55:00,
2013-01-15 15:00:00,27.3,18.8,30.33,South,172,0.0,0.0,70,0.00,,,0.00,Wunderground v.1.15,2013-01-15 21:00:00,
2013-01-15 15:10:00,27.7,18.8,30.33,SSE,160,1.0,1.0,69,0.00,,,0.00,Wunderground v.1.15,2013-01-15 21:10:00,
2013-01-15 15:20:00,27.7,19.2,30.33,South,177,1.0,2.0,70,0.00,,,0.00,Wunderground v.1.15,2013-01-15 21:20:00,
2013-01-15 15:30:00,27.6,18.1,30.33,SE,131,1.0,1.0,67,0.00,,,0.00,Wunderground v.1.15,2013-01-15 21:30:00,
2013-01-15 15:35:00,27.6,19.1,30.33,ESE,121,0.0,1.0,70,0.00,,,0.00,Wunderground v.1.15,2013-01-15 21:35:00,
2013-01-15 15:45:00,27.5,19.3,30.33,ESE,109,1.0,1.0,71,0.00,,,0.00,Wunderground v.1.15,2013-01-15 21:45:00,
2013-01-15 15:55:00,27.4,18.2,30.32,ESE,115,0.0,0.0,68,0.00,,,0.00,Wunderground v.1.15,2013-01-15 21:55:00,
2013-01-15 16:00:00,27.3,18.8,30.32,SE,125,0.0,0.0,70,0.00,,,0.00,Wunderground v.1.15,2013-01-15 22:00:00,
2013-01-15 16:10:00,27.0,19.5,30.32,SSE,153,0.0,0.0,73,0.00,,,0.00,Wunderground v.1.15,2013-01-15 22:10:00,
2013-01-15 16:15:00,26.9,19.4,30.32,SE,127,0.0,0.0,73,0.00,,,0.00,Wunderground v.1.15,2013-01-15 22:15:00,
2013-01-15 16:25:00,26.6,19.4,30.32,SE,134,0.0,0.0,74,0.00,,,0.00,Wunderground v.1.15,2013-01-15 22:25:00,
2013-01-15 16:35:00,26.4,19.9,30.32,SSE,158,0.0,0.0,76,0.00,,,0.00,Wunderground v.1.15,2013-01-15 22:35:00,
2013-01-15 16:45:00,26.0,19.2,30.32,SSE,153,0.0,0.0,75,0.00,,,0.00,Wunderground v.1.15,2013-01-15 22:45:00,
2013-01-15 16:55:00,25.2,19.0,30.32,SSE,161,0.0,0.0,77,0.00,,,0.00,Wunderground v.1.15,2013-01-15 22:55:00,
2013-01-15 17:00:00,24.8,18.9,30.32,SSE,160,0.0,0.0,78,0.00,,,0.00,Wunderground v.1.15,2013-01-15 23:00:00,
2013-01-15 17:10:00,23.6,17.7,30.31,SSE,160,0.0,0.0,78,0.00,,,0.00,Wunderground v.1.15,2013-01-15 23:10:00,
2013-01-15 17:20:00,22.6,17.6,30.31,SSE,160,0.0,0.0,81,0.00,,,0.00,Wunderground v.1.15,2013-01-15 23:20:00,
2013-01-15 17:30:00,22.2,17.5,30.31,SSE,160,0.0,0.0,82,0.00,,,0.00,Wunderground v.1.15,2013-01-15 23:30:00,
2013-01-15 17:35:00,22.0,17.6,30.31,SSE,160,0.0,0.0,83,0.00,,,0.00,Wunderground v.1.15,2013-01-15 23:35:00,
2013-01-15 17:45:00,21.9,18.6,30.30,SSE,160,0.0,0.0,87,0.00,,,0.00,Wunderground v.1.15,2013-01-15 23:45:00,
2013-01-15 17:50:00,22.0,18.5,30.30,SSE,160,0.0,0.0,86,0.00,,,0.00,Wunderground v.1.15,2013-01-15 23:50:00,
2013-01-15 18:00:00,22.2,19.2,30.30,SSE,160,0.0,0.0,88,0.00,,,0.00,Wunderground v.1.15,2013-01-16 00:00:00,
2013-01-15 18:10:00,22.9,20.4,30.29,WNW,290,0.0,0.0,90,0.00,,,0.00,Wunderground v.1.15,2013-01-16 00:10:00,
2013-01-15 18:20:00,22.0,19.0,30.29,WNW,289,0.0,0.0,88,0.00,,,0.00,Wunderground v.1.15,2013-01-16 00:20:00,
2013-01-15 18:25:00,22.1,19.4,30.28,WNW,289,0.0,0.0,89,0.00,,,0.00,Wunderground v.1.15,2013-01-16 00:25:00,
2013-01-15 18:35:00,22.1,19.1,30.27,WNW,290,0.0,0.0,88,0.00,,,0.00,Wunderground v.1.15,2013-01-16 00:35:00,
2013-01-15 18:40:00,22.1,19.4,30.27,WNW,289,0.0,0.0,89,0.00,,,0.00,Wunderground v.1.15,2013-01-16 00:40:00,
2013-01-15 18:50:00,22.3,19.8,30.26,WNW,290,0.0,0.0,90,0.00,,,0.00,Wunderground v.1.15,2013-01-16 00:50:00,
2013-01-15 18:55:00,22.3,20.1,30.26,WNW,290,0.0,0.0,91,0.00,,,0.00,Wunderground v.1.15,2013-01-16 00:55:00,
2013-01-15 19:00:00,22.4,20.2,30.26,WNW,289,0.0,0.0,91,0.00,,,0.00,Wunderground v.1.15,2013-01-16 01:00:00,
2013-01-15 19:10:00,22.3,20.1,30.26,WNW,289,0.0,0.0,91,0.00,,,0.00,Wunderground v.1.15,2013-01-16 01:10:00,
2013-01-15 19:15:00,22.4,20.2,30.25,WNW,290,0.0,0.0,91,0.00,,,0.00,Wunderground v.1.15,2013-01-16 01:15:00,
2013-01-15 19:25:00,21.5,18.8,30.25,WNW,290,0.0,0.0,89,0.00,,,0.00,Wunderground v.1.15,2013-01-16 01:25:00,
2013-01-15 19:30:00,21.3,18.8,30.25,WNW,290,0.0,0.0,90,0.00,,,0.00,Wunderground v.1.15,2013-01-16 01:30:00,
2013-01-15 19:40:00,21.0,18.5,30.25,WNW,289,0.0,0.0,90,0.00,,,0.00,Wunderground v.1.15,2013-01-16 01:40:00,
2013-01-15 19:45:00,20.5,18.0,30.25,WNW,289,0.0,0.0,90,0.00,,,0.00,Wunderground v.1.15,2013-01-16 01:45:00,
2013-01-15 19:55:00,20.2,18.0,30.24,WNW,290,0.0,0.0,91,0.00,,,0.00,Wunderground v.1.15,2013-01-16 01:55:00,
2013-01-15 20:00:00,19.8,17.6,30.24,WNW,289,0.0,0.0,91,0.00,,,0.00,Wunderground v.1.15,2013-01-16 02:00:00,
2013-01-15 20:10:00,18.8,16.6,30.23,WNW,290,0.0,0.0,91,0.00,,,0.00,Wunderground v.1.15,2013-01-16 02:10:00,
2013-01-15 20:20:00,19.4,17.7,30.23,WNW,289,0.0,0.0,93,0.00,,,0.00,Wunderground v.1.15,2013-01-16 02:20:00,
2013-01-15 20:30:00,19.7,18.3,30.22,WNW,290,0.0,0.0,94,0.00,,,0.00,Wunderground v.1.15,2013-01-16 02:30:00,
2013-01-15 20:35:00,19.8,18.1,30.22,WNW,290,0.0,0.0,93,0.00,,,0.00,Wunderground v.1.15,2013-01-16 02:35:00,
2013-01-15 20:45:00,19.8,18.1,30.22,WNW,289,0.0,0.0,93,0.00,,,0.00,Wunderground v.1.15,2013-01-16 02:45:00,
2013-01-15 20:50:00,19.7,18.0,30.22,WNW,289,0.0,0.0,93,0.00,,,0.00,Wunderground v.1.15,2013-01-16 02:50:00,
2013-01-15 21:00:00,19.6,17.9,30.21,SW,221,0.0,0.0,93,0.00,,,0.00,Wunderground v.1.15,2013-01-16 03:00:00,
2013-01-15 21:10:00,19.4,17.7,30.21,SW,221,0.0,0.0,93,0.00,,,0.00,Wunderground v.1.15,2013-01-16 03:10:00,
2013-01-15 21:15:00,19.3,17.6,30.21,SW,221,0.0,0.0,93,0.00,,,0.00,Wunderground v.1.15,2013-01-16 03:15:00,
2013-01-15 21:25:00,18.3,16.1,30.20,SW,221,0.0,0.0,91,0.00,,,0.00,Wunderground v.1.15,2013-01-16 03:25:00,
2013-01-15 21:35:00,17.9,16.0,30.20,SW,221,0.0,0.0,92,0.00,,,0.00,Wunderground v.1.15,2013-01-16 03:35:00,
2013-01-15 21:45:00,17.3,15.6,30.19,WSW,252,0.0,0.0,93,0.00,,,0.00,Wunderground v.1.15,2013-01-16 03:45:00,
2013-01-15 21:55:00,17.8,16.4,30.19,SW,217,0.0,0.0,94,0.00,,,0.00,Wunderground v.1.15,2013-01-16 03:55:00,
2013-01-15 22:00:00,17.5,15.8,30.19,SW,217,0.0,0.0,93,0.00,,,0.00,Wunderground v.1.15,2013-01-16 04:00:00,
2013-01-15 22:10:00,17.1,15.4,30.19,SW,217,0.0,0.0,93,0.00,,,0.00,Wunderground v.1.15,2013-01-16 04:10:00,
2013-01-15 22:20:00,16.8,15.1,30.19,SW,217,0.0,0.0,93,0.00,,,0.00,Wunderground v.1.15,2013-01-16 04:20:00,
2013-01-15 22:30:00,16.4,14.7,30.19,SW,217,0.0,0.0,93,0.00,,,0.00,Wunderground v.1.15,2013-01-16 04:30:00,
2013-01-15 22:35:00,16.2,14.5,30.18,SW,217,0.0,0.0,93,0.00,,,0.00,Wunderground v.1.15,2013-01-16 04:35:00,
2013-01-15 22:45:00,16.2,14.8,30.18,SW,217,0.0,0.0,94,0.00,,,0.00,Wunderground v.1.15,2013-01-16 04:45:00,
2013-01-15 22:55:00,16.2,14.8,30.18,SW,217,0.0,0.0,94,0.00,,,0.00,Wunderground v.1.15,2013-01-16 04:55:00,
2013-01-15 23:05:00,16.3,14.9,30.17,SW,217,0.0,0.0,94,0.00,,,0.00,Wunderground v.1.15,2013-01-16 05:05:00,
2013-01-15 23:10:00,16.2,14.8,30.16,SE,140,0.0,0.0,94,0.00,,,0.00,Wunderground v.1.15,2013-01-16 05:10:00,
2013-01-15 23:20:00,15.8,14.1,30.16,SE,139,0.0,0.0,93,0.00,,,0.00,Wunderground v.1.15,2013-01-16 05:20:00,
2013-01-15 23:25:00,15.6,13.9,30.16,SE,140,0.0,0.0,93,0.00,,,0.00,Wunderground v.1.15,2013-01-16 05:25:00,
2013-01-15 23:30:00,15.4,13.7,30.15,WSW,249,0.0,0.0,93,0.00,,,0.00,Wunderground v.1.15,2013-01-16 05:30:00,
2013-01-15 23:40:00,14.8,12.9,30.16,WSW,246,0.0,0.0,92,0.00,,,0.00,Wunderground v.1.15,2013-01-16 05:40:00,
2013-01-15 23:45:00,15.1,13.7,30.15,WSW,247,0.0,0.0,94,0.00,,,0.00,Wunderground v.1.15,2013-01-16 05:45:00,
2013-01-15 23:55:00,15.2,13.8,30.15,WSW,246,0.0,0.0,94,0.00,,,0.00,Wunderground v.1.15,2013-01-16 05:55:00,